Time;durP1;ratioP1;P1;durP2;ratioP2;P2;SDS_P1;SDS_P2;PMS_P1;PMS_P2;Temp;Humidity;BMP_temperature;BMP_pressure;BME280_temperature;BME280_humidity;BME280_pressure;Samples;Min_cycle;Max_cycle;Signal;HPM_P1;HPM_P2
2022/12/06 00:02:01;;;;;;;0.00;0.00;;;;;;;;;;5068716;28;20042;-95
2022/12/06 00:04:28;;;;;;;0.10;0.10;;;;;;;;;;5073656;28;20035;-93
2022/12/06 00:06:56;;;;;;;0.10;0.10;;;3.40;99.90;;;;;;5070731;28;20032;-91
2022/12/06 00:09:25;;;;;;;0.10;0.10;;;3.40;99.90;;;;;;5084592;28;20017;-95
2022/12/06 00:11:52;;;;;;;0.10;0.10;;;3.40;99.90;;;;;;5074628;28;20024;-95
2022/12/06 00:14:21;;;;;;;0.08;0.08;;;3.40;99.90;;;;;;5068589;28;20029;-95
2022/12/06 00:16:49;;;;;;;0.10;0.10;;;4.30;99.90;;;;;;5070842;28;20032;-95
2022/12/06 00:19:19;;;;;;;0.10;0.10;;;3.40;99.90;;;;;;5070022;28;20029;-92
2022/12/06 00:21:46;;;;;;;0.10;0.10;;;5.00;99.90;;;;;;5068504;28;20029;-96
2022/12/06 00:24:15;;;;;;;0.08;0.08;;;3.40;99.90;;;;;;5073766;28;20036;-86
2022/12/06 00:26:43;;;;;;;0.10;0.10;;;3.40;99.90;;;;;;5071694;28;20036;-95
2022/12/06 00:29:12;;;;;;;0.10;0.10;;;4.80;99.90;;;;;;5071206;28;20029;-96
2022/12/06 00:31:40;;;;;;;0.10;0.10;;;3.40;99.90;;;;;;5065076;28;20040;-91
2022/12/06 00:34:08;;;;;;;0.10;0.10;;;;;;;;;;5068801;28;20034;-95
2022/12/06 00:36:36;;;;;;;0.10;0.10;;;3.40;99.90;;;;;;5064977;28;20041;-92
2022/12/06 00:39:06;;;;;;;0.10;0.10;;;3.40;99.90;;;;;;5074468;28;20032;-96
2022/12/06 00:41:34;;;;;;;0.10;0.10;;;3.50;99.90;;;;;;5069685;28;20083;-94
2022/12/06 00:44:01;;;;;;;0.10;0.10;;;4.70;99.90;;;;;;5068711;28;20037;-92
2022/12/06 00:46:30;;;;;;;0.10;0.10;;;3.50;99.90;;;;;;5064873;28;20025;-95
2022/12/06 00:49:00;;;;;;;0.10;0.10;;;3.40;99.90;;;;;;5073203;28;20025;-93
2022/12/06 00:51:29;;;;;;;0.10;0.10;;;4.80;99.90;;;;;;5073243;28;20038;-92
2022/12/06 00:53:57;;;;;;;0.10;0.10;;;;;;;;;;5076271;28;20021;-94
2022/12/06 00:56:24;;;;;;;0.00;0.00;;;3.40;99.90;;;;;;5069090;28;20029;-95
2022/12/06 00:58:52;;;;;;;0.10;0.10;;;;;;;;;;5066932;28;20033;-93
2022/12/06 01:01:20;;;;;;;0.10;0.10;;;3.40;99.90;;;;;;5070102;28;20045;-93
2022/12/06 01:03:52;;;;;;;0.10;0.10;;;3.40;99.90;;;;;;5072710;28;20063;-93
2022/12/06 01:06:24;;;;;;;0.10;0.10;;;3.40;99.90;;;;;;5069005;28;20041;-95
2022/12/06 01:08:55;;;;;;;0.10;0.10;;;;;;;;;;5076264;28;20097;-94
2022/12/06 01:11:31;;;;;;;0.10;0.10;;;;;;;;;;5055573;28;20030;-93
2022/12/06 01:13:59;;;;;;;0.10;0.10;;;;;;;;;;5088022;28;20021;-93
2022/12/06 01:16:28;;;;;;;0.10;0.10;;;3.10;99.90;;;;;;5071403;28;20029;-92
2022/12/06 01:18:57;;;;;;;0.08;0.08;;;3.10;99.90;;;;;;5065766;28;20084;-94
2022/12/06 01:21:26;;;;;;;0.10;0.10;;;3.10;99.90;;;;;;5086354;28;20033;-92
2022/12/06 01:23:54;;;;;;;0.10;0.10;;;;;;;;;;5069922;28;20033;-94
2022/12/06 01:26:23;;;;;;;0.10;0.10;;;3.20;99.90;;;;;;5071459;28;20039;-95
2022/12/06 01:28:50;;;;;;;0.10;0.10;;;3.20;99.90;;;;;;5071236;28;20033;-94
2022/12/06 01:31:18;;;;;;;0.10;0.10;;;3.20;99.90;;;;;;5063294;28;20041;-92
2022/12/06 01:33:45;;;;;;;0.00;0.00;;;3.20;99.90;;;;;;5066402;28;20045;-93
2022/12/06 01:36:16;;;;;;;0.08;0.08;;;3.20;99.90;;;;;;5069526;28;20025;-95
2022/12/06 01:38:48;;;;;;;0.00;0.00;;;3.30;99.90;;;;;;5087984;28;20138;-95
2022/12/06 01:41:15;;;;;;;0.10;0.10;;;;;;;;;;5069998;28;20040;-90
2022/12/06 01:43:44;;;;;;;0.00;0.00;;;3.20;99.90;;;;;;5074266;28;20029;-95
2022/12/06 01:46:26;;;;;;;0.00;0.00;;;3.20;99.90;;;;;;5076021;28;20041;-94
2022/12/06 01:49:08;;;;;;;0.10;0.10;;;3.30;99.90;;;;;;5070927;28;20144;-92
2022/12/06 01:51:36;;;;;;;0.17;0.17;;;3.30;99.90;;;;;;5070514;28;20044;-92
2022/12/06 01:54:08;;;;;;;0.10;0.10;;;3.30;99.90;;;;;;5074932;28;20063;-95
2022/12/06 01:56:36;;;;;;;0.10;0.10;;;3.30;99.90;;;;;;5075452;28;20071;-93
2022/12/06 01:59:05;;;;;;;0.00;0.00;;;;;;;;;;5070394;28;20124;-95
2022/12/06 02:01:33;;;;;;;0.10;0.10;;;3.10;99.90;;;;;;5074568;28;20036;-94
2022/12/06 02:04:01;;;;;;;0.10;0.10;;;;;;;;;;5070218;28;20031;-95
2022/12/06 02:06:32;;;;;;;0.10;0.10;;;;;;;;;;5073509;28;20032;-92
2022/12/06 02:09:07;;;;;;;0.10;0.10;;;3.10;99.90;;;;;;5076057;28;20051;-93
2022/12/06 02:11:35;;;;;;;0.10;0.10;;;3.20;99.90;;;;;;5076329;28;20040;-96
2022/12/06 02:14:04;;;;;;;0.10;0.10;;;3.10;99.90;;;;;;5073942;28;20033;-93
2022/12/06 02:16:42;;;;;;;0.10;0.10;;;3.10;99.90;;;;;;5080272;28;20033;-95
2022/12/06 02:19:43;;;;;;;0.10;0.10;;;3.20;99.90;;;;;;5072162;28;20045;-92
2022/12/06 02:22:16;;;;;;;0.10;0.10;;;3.10;99.90;;;;;;5076775;28;20021;-95
2022/12/06 02:25:04;;;;;;;0.10;0.10;;;3.10;99.90;;;;;;5073713;28;20048;-94
2022/12/06 02:27:57;;;;;;;0.10;0.10;;;3.10;99.90;;;;;;5073965;28;20059;-95
2022/12/06 02:30:37;;;;;;;0.10;0.10;;;3.10;99.90;;;;;;5075351;28;20045;-94
2022/12/06 02:33:08;;;;;;;0.03;0.03;;;3.10;99.90;;;;;;5074245;28;20030;-95
2022/12/06 02:35:39;;;;;;;0.10;0.10;;;3.20;99.90;;;;;;5073654;28;20029;-96
2022/12/06 02:38:11;;;;;;;0.10;0.10;;;3.20;99.90;;;;;;5074724;28;20033;-96
2022/12/06 02:40:42;;;;;;;0.10;0.10;;;3.20;99.90;;;;;;5070396;28;20045;-93
2022/12/06 02:43:14;;;;;;;0.10;0.10;;;3.20;99.90;;;;;;5076295;28;20063;-95
2022/12/06 02:45:46;;;;;;;0.00;0.00;;;3.30;99.90;;;;;;5073522;28;20029;-93
2022/12/06 02:48:15;;;;;;;0.10;0.10;;;3.30;99.90;;;;;;5076394;28;20041;-93
2022/12/06 02:50:47;;;;;;;0.10;0.10;;;3.20;99.90;;;;;;5072614;28;20064;-95
2022/12/06 02:53:18;;;;;;;0.10;0.10;;;3.20;99.90;;;;;;5071752;28;20045;-96
2022/12/06 02:55:45;;;;;;;0.10;0.10;;;3.20;99.90;;;;;;5069989;28;20048;-95
2022/12/06 02:58:12;;;;;;;0.10;0.10;;;;;;;;;;5065554;28;20064;-93
2022/12/06 03:00:43;;;;;;;0.10;0.10;;;3.20;99.90;;;;;;5071077;28;20099;-94
2022/12/06 03:03:40;;;;;;;0.00;0.00;;;3.20;99.90;;;;;;5069794;28;20028;-94
2022/12/06 03:06:41;;;;;;;0.10;0.10;;;3.20;99.90;;;;;;5057194;28;20060;-94
2022/12/06 03:09:29;;;;;;;0.10;0.10;;;3.30;99.90;;;;;;5068700;28;20056;-95
2022/12/06 03:12:05;;;;;;;0.10;0.10;;;3.20;99.90;;;;;;5072019;28;20029;-92
2022/12/06 03:14:39;;;;;;;0.10;0.10;;;3.30;99.90;;;;;;5074948;28;20060;-92
2022/12/06 03:17:15;;;;;;;0.10;0.10;;;3.20;99.90;;;;;;5077125;28;20050;-95
2022/12/06 03:19:47;;;;;;;0.10;0.10;;;3.30;99.90;;;;;;5072083;28;20040;-92
2022/12/06 03:22:21;;;;;;;0.10;0.10;;;3.30;99.90;;;;;;5073825;28;20037;-91
2022/12/06 03:24:49;;;;;;;0.10;0.10;;;3.30;99.90;;;;;;5073411;28;20021;-91
2022/12/06 03:27:18;;;;;;;0.10;0.10;;;3.30;99.90;;;;;;5069087;28;20013;-90
2022/12/06 03:29:49;;;;;;;0.10;0.10;;;3.30;99.90;;;;;;5073621;28;20067;-93
2022/12/06 03:32:22;;;;;;;0.10;0.10;;;3.30;99.90;;;;;;5072355;28;20021;-90
2022/12/06 03:34:51;;;;;;;0.10;0.10;;;3.40;99.90;;;;;;5073599;28;20021;-93
2022/12/06 03:37:21;;;;;;;0.10;0.10;;;3.40;99.90;;;;;;5074890;28;20041;-90
2022/12/06 03:39:57;;;;;;;0.10;0.10;;;1.50;99.90;;;;;;5073098;28;20037;-95
2022/12/06 03:42:24;;;;;;;0.10;0.10;;;3.30;99.90;;;;;;5071885;28;20028;-96
2022/12/06 03:44:52;;;;;;;0.10;0.10;;;;;;;;;;5069133;28;20047;-93
2022/12/06 03:47:27;;;;;;;0.10;0.10;;;3.30;99.90;;;;;;5064168;28;20041;-92
2022/12/06 03:49:57;;;;;;;0.10;0.10;;;3.60;99.90;;;;;;5071010;28;20041;-93
2022/12/06 03:52:25;;;;;;;0.10;0.10;;;;;;;;;;5072659;28;20037;-93
2022/12/06 03:54:51;;;;;;;0.10;0.10;;;3.40;99.90;;;;;;5074075;28;20029;-95
2022/12/06 03:57:18;;;;;;;0.10;0.10;;;3.40;99.90;;;;;;5069362;28;20056;-90
2022/12/06 03:59:45;;;;;;;0.10;0.10;;;3.40;99.90;;;;;;5071287;28;20028;-95
2022/12/06 04:02:13;;;;;;;0.10;0.10;;;;;;;;;;5071664;28;20055;-97
2022/12/06 04:04:41;;;;;;;0.10;0.10;;;3.40;99.90;;;;;;5072456;28;20047;-94
2022/12/06 04:07:08;;;;;;;0.10;0.10;;;3.40;99.90;;;;;;5072786;28;20028;-95
2022/12/06 04:15:09;;;;;;;0.10;0.10;;;3.40;99.90;;;;;;5074888;28;20047;-92
2022/12/06 04:20:24;;;;;;;0.10;0.10;;;3.40;99.90;;;;;;5071711;28;20055;-92
2022/12/06 04:23:04;;;;;;;0.10;0.10;;;;;;;;;;5072208;28;20029;-96
2022/12/06 04:25:32;;;;;;;0.10;0.10;;;3.50;99.90;;;;;;5074045;28;20059;-94
2022/12/06 04:39:05;;;;;;;0.10;0.10;;;;;;;;;;5066589;28;20025;-96
2022/12/06 04:44:18;;;;;;;0.10;0.10;;;3.60;99.90;;;;;;5073655;28;20029;-89
2022/12/06 04:46:45;;;;;;;0.10;0.10;;;;;;;;;;5069336;28;20029;-96
2022/12/06 04:49:12;;;;;;;0.10;0.10;;;;;;;;;;5071153;28;20027;-94
2022/12/06 04:51:41;;;;;;;0.10;0.10;;;3.60;99.90;;;;;;5067371;28;20033;-96
2022/12/06 04:54:08;;;;;;;0.10;0.10;;;;;;;;;;5073336;28;20041;-91
2022/12/06 04:56:35;;;;;;;0.10;0.10;;;;;;;;;;5064909;28;20034;-94
2022/12/06 04:59:02;;;;;;;0.10;0.10;;;3.60;99.90;;;;;;5069051;28;20049;-95
2022/12/06 05:01:29;;;;;;;0.10;0.10;;;3.60;99.90;;;;;;5090965;23;20048;-84
2022/12/06 05:03:56;;;;;;;0.10;0.10;;;;;;;;;;5035100;28;20050;-85
2022/12/06 05:06:23;;;;;;;0.10;0.10;;;;;;;;;;5039988;28;20044;-85
2022/12/06 05:08:52;;;;;;;0.08;0.08;;;3.60;99.90;;;;;;5046981;28;20057;-85
2022/12/06 05:11:19;;;;;;;0.10;0.10;;;;;;;;;;5058638;28;20029;-83
2022/12/06 05:13:46;;;;;;;0.10;0.10;;;;;;;;;;5070288;28;20036;-85
2022/12/06 05:16:13;;;;;;;0.10;0.10;;;;;;;;;;5050692;28;20050;-85
2022/12/06 05:18:41;;;;;;;0.10;0.10;;;;;;;;;;5060465;28;20126;-83
2022/12/06 05:21:11;;;;;;;0.00;0.00;;;3.60;99.90;;;;;;5054152;28;20514;-83
2022/12/06 05:23:38;;;;;;;0.10;0.10;;;;;;;;;;5062308;28;20123;-84
2022/12/06 05:26:09;;;;;;;0.10;0.10;;;3.60;99.90;;;;;;5060432;28;20074;-85
2022/12/06 05:28:36;;;;;;;0.10;0.10;;;;;;;;;;5072029;28;20127;-85
2022/12/06 05:31:03;;;;;;;0.10;0.10;;;;;;;;;;5063619;28;20143;-85
2022/12/06 05:33:31;;;;;;;0.10;0.10;;;;;;;;;;5048767;28;20097;-85
2022/12/06 05:35:58;;;;;;;0.00;0.00;;;;;;;;;;5056259;28;20044;-85
2022/12/06 05:38:25;;;;;;;0.10;0.10;;;;;;;;;;5061948;28;20556;-85
2022/12/06 05:40:52;;;;;;;0.10;0.10;;;3.70;99.90;;;;;;5058471;28;20045;-86
2022/12/06 05:43:20;;;;;;;0.10;0.10;;;3.80;99.90;;;;;;5075443;28;20402;-85
2022/12/06 05:45:51;;;;;;;0.10;0.10;;;3.70;99.90;;;;;;5065211;28;20383;-85
2022/12/06 05:48:18;;;;;;;0.00;0.00;;;3.70;99.90;;;;;;5059508;28;20049;-85
2022/12/06 05:50:45;;;;;;;0.10;0.10;;;3.00;99.90;;;;;;5053031;28;20072;-85
2022/12/06 05:53:12;;;;;;;0.10;0.10;;;3.70;99.90;;;;;;5074559;28;20075;-86
2022/12/06 05:55:39;;;;;;;0.10;0.10;;;;;;;;;;5056163;28;20048;-85
2022/12/06 05:58:07;;;;;;;0.10;0.10;;;;;;;;;;5052351;28;20076;-85
2022/12/06 06:00:35;;;;;;;0.10;0.10;;;3.70;99.90;;;;;;5053481;28;20056;-85
2022/12/06 06:03:03;;;;;;;0.10;0.10;;;;;;;;;;5079045;28;20048;-85
2022/12/06 06:05:30;;;;;;;0.10;0.10;;;;;;;;;;5053872;28;20450;-84
2022/12/06 06:07:58;;;;;;;0.10;0.10;;;;;;;;;;5055510;28;20163;-85
2022/12/06 06:10:25;;;;;;;0.10;0.10;;;;;;;;;;5056359;28;20044;-85
2022/12/06 06:12:52;;;;;;;0.10;0.10;;;;;;;;;;5054026;28;20071;-85
2022/12/06 06:15:19;;;;;;;0.10;0.10;;;3.90;99.90;;;;;;5050184;28;20064;-82
2022/12/06 06:17:47;;;;;;;0.10;0.10;;;3.80;99.90;;;;;;5055754;28;20050;-85
2022/12/06 06:20:14;;;;;;;0.10;0.10;;;3.80;99.90;;;;;;5048748;28;20132;-86
2022/12/06 06:22:41;;;;;;;0.10;0.10;;;;;;;;;;5050681;28;20075;-85
2022/12/06 06:25:09;;;;;;;0.10;0.10;;;;;;;;;;5051402;28;20302;-84
2022/12/06 06:27:36;;;;;;;0.13;0.13;;;3.90;99.90;;;;;;5050648;28;20090;-85
2022/12/06 06:30:05;;;;;;;0.10;0.10;;;3.80;99.90;;;;;;5058451;28;20492;-86
2022/12/06 06:32:32;;;;;;;0.10;0.10;;;;;;;;;;5048954;28;20095;-86
2022/12/06 06:35:05;;;;;;;0.20;0.20;;;3.90;99.90;;;;;;5052196;28;20052;-85
2022/12/06 06:37:32;;;;;;;0.10;0.10;;;;;;;;;;5048111;28;20127;-85
2022/12/06 06:40:00;;;;;;;0.10;0.10;;;;;;;;;;5069498;28;20090;-85
2022/12/06 06:42:27;;;;;;;0.20;0.20;;;4.00;99.90;;;;;;5055890;28;20052;-85
2022/12/06 06:44:55;;;;;;;0.05;0.05;;;;;;;;;;5052079;28;20080;-86
2022/12/06 06:47:22;;;;;;;0.10;0.10;;;;;;;;;;5057770;28;20419;-84
2022/12/06 06:49:49;;;;;;;0.20;0.20;;;;;;;;;;5057571;28;20133;-85
2022/12/06 06:52:18;;;;;;;0.20;0.20;;;4.00;99.90;;;;;;5058803;28;20033;-86
2022/12/06 06:54:46;;;;;;;0.10;0.10;;;;;;;;;;5055275;28;20044;-85
2022/12/06 06:57:13;;;;;;;0.10;0.10;;;;;;;;;;5054597;28;20448;-85
2022/12/06 06:59:44;;;;;;;0.05;0.05;;;;;;;;;;5073155;28;20508;-84
2022/12/06 07:02:11;;;;;;;0.10;0.10;;;;;;;;;;5073309;28;20036;-86
2022/12/06 07:04:39;;;;;;;0.17;0.17;;;;;;;;;;5054890;28;20157;-85
2022/12/06 07:07:06;;;;;;;0.10;0.10;;;;;;;;;;5058529;28;20044;-86
2022/12/06 07:09:34;;;;;;;0.20;0.20;;;4.10;99.90;;;;;;5072401;28;20531;-85
2022/12/06 07:12:01;;;;;;;0.20;0.20;;;;;;;;;;5056755;28;20079;-86
2022/12/06 07:14:28;;;;;;;0.10;0.10;;;4.10;99.90;;;;;;5054830;28;20051;-85
2022/12/06 07:16:55;;;;;;;0.20;0.20;;;4.00;99.90;;;;;;5051301;28;20516;-85
2022/12/06 07:19:23;;;;;;;0.20;0.20;;;;;;;;;;5048987;28;20032;-86
2022/12/06 07:21:49;;;;;;;0.30;0.30;;;4.00;99.90;;;;;;5054224;28;20108;-87
2022/12/06 07:24:16;;;;;;;0.10;0.10;;;4.10;99.90;;;;;;5075580;28;20048;-86
2022/12/06 07:26:44;;;;;;;0.25;0.25;;;4.10;99.90;;;;;;5055480;28;20036;-86
2022/12/06 07:29:12;;;;;;;0.20;0.20;;;;;;;;;;5054154;28;20108;-85
2022/12/06 07:31:39;;;;;;;0.10;0.10;;;4.10;99.90;;;;;;5055646;28;20044;-85
2022/12/06 07:34:06;;;;;;;0.20;0.20;;;4.10;99.90;;;;;;5055327;28;20111;-86
2022/12/06 07:36:33;;;;;;;0.10;0.10;;;4.10;99.90;;;;;;5052931;28;20071;-85
2022/12/06 07:39:00;;;;;;;0.20;0.20;;;;;;;;;;5053366;28;20504;-86
2022/12/06 07:47:01;;;;;;;0.08;0.08;;;4.00;99.90;;;;;;5073438;28;20143;-85
2022/12/06 07:49:29;;;;;;;0.10;0.10;;;4.10;99.90;;;;;;5074988;28;20128;-85
2022/12/06 07:51:56;;;;;;;0.20;0.20;;;;;;;;;;5052408;28;20045;-85
2022/12/06 07:54:24;;;;;;;0.20;0.20;;;;;;;;;;5057017;28;20123;-85
2022/12/06 07:56:50;;;;;;;0.10;0.10;;;4.00;99.90;;;;;;5054275;28;20052;-85
2022/12/06 07:59:19;;;;;;;0.10;0.10;;;3.90;99.90;;;;;;5049780;28;20036;-86
2022/12/06 08:01:46;;;;;;;0.10;0.10;;;;;;;;;;5068887;28;20119;-85
2022/12/06 08:04:13;;;;;;;0.10;0.10;;;;;;;;;;5048391;28;20102;-85
2022/12/06 08:06:40;;;;;;;0.10;0.10;;;4.00;99.90;;;;;;5054184;28;20425;-86
2022/12/06 08:09:08;;;;;;;0.10;0.10;;;;;;;;;;5062280;28;20123;-85
2022/12/06 08:11:35;;;;;;;0.10;0.10;;;;;;;;;;5074480;28;20127;-85
2022/12/06 08:14:02;;;;;;;0.10;0.10;;;4.10;99.90;;;;;;5054133;28;20076;-86
2022/12/06 08:16:31;;;;;;;0.10;0.10;;;4.10;99.90;;;;;;5054866;28;20139;-85
2022/12/06 08:18:58;;;;;;;0.10;0.10;;;;;;;;;;5053862;28;20386;-86
2022/12/06 08:21:25;;;;;;;0.10;0.10;;;;;;;;;;5052939;28;20043;-85
2022/12/06 08:23:53;;;;;;;0.10;0.10;;;;;;;;;;5058510;28;20045;-85
2022/12/06 08:26:20;;;;;;;0.10;0.10;;;;;;;;;;5054124;28;20157;-85
2022/12/06 08:28:47;;;;;;;0.00;0.00;;;4.10;99.90;;;;;;5047981;28;20064;-85
2022/12/06 08:31:16;;;;;;;0.10;0.10;;;5.70;99.90;;;;;;5058769;28;20071;-85
2022/12/06 08:33:45;;;;;;;0.10;0.10;;;4.20;99.90;;;;;;5058010;28;20045;-85
2022/12/06 08:36:15;;;;;;;0.10;0.10;;;4.20;99.90;;;;;;5054149;28;20075;-86
2022/12/06 08:38:42;;;;;;;0.10;0.10;;;4.20;99.90;;;;;;5051714;28;20044;-85
2022/12/06 08:43:56;;;;;;;0.10;0.10;;;4.20;99.90;;;;;;5066982;28;20497;-85
2022/12/06 08:46:24;;;;;;;0.10;0.10;;;;;;;;;;5060282;28;20053;-85
2022/12/06 08:48:52;;;;;;;0.15;0.15;;;4.20;99.90;;;;;;5060827;28;20044;-84
2022/12/06 08:51:20;;;;;;;0.20;0.20;;;;;;;;;;5051014;28;20557;-85
2022/12/06 08:53:47;;;;;;;0.10;0.10;;;;;;;;;;5051394;28;20075;-86
2022/12/06 08:56:14;;;;;;;0.10;0.10;;;4.40;99.90;;;;;;5070971;28;20469;-85
2022/12/06 08:58:41;;;;;;;0.10;0.10;;;;;;;;;;5050296;28;20077;-85
2022/12/06 09:01:10;;;;;;;0.10;0.10;;;4.50;99.90;;;;;;5052592;28;20102;-85
2022/12/06 09:03:38;;;;;;;0.10;0.10;;;;;;;;;;5054139;28;20036;-85
2022/12/06 09:06:07;;;;;;;0.10;0.10;;;4.60;99.90;;;;;;5055870;28;20044;-86
2022/12/06 09:08:35;;;;;;;0.10;0.10;;;4.60;99.90;;;;;;5051981;28;20519;-86
2022/12/06 09:11:03;;;;;;;0.10;0.10;;;4.70;99.90;;;;;;5052237;28;20404;-85
2022/12/06 09:13:30;;;;;;;0.10;0.10;;;;;;;;;;5067436;28;20130;-86
2022/12/06 09:15:57;;;;;;;0.10;0.10;;;;;;;;;;5051030;28;20143;-86
2022/12/06 09:18:25;;;;;;;0.10;0.10;;;;;;;;;;5052532;28;20501;-85
2022/12/06 09:20:52;;;;;;;0.10;0.10;;;;;;;;;;5052824;28;20078;-85
2022/12/06 09:23:20;;;;;;;0.10;0.10;;;4.70;99.90;;;;;;5053024;28;20083;-84
2022/12/06 09:25:47;;;;;;;0.10;0.10;;;4.60;99.90;;;;;;5049654;28;20063;-85
2022/12/06 09:28:14;;;;;;;0.10;0.10;;;6.30;99.90;;;;;;5050095;28;20076;-86
2022/12/06 09:30:41;;;;;;;0.10;0.10;;;;;;;;;;5075210;28;20049;-85
2022/12/06 09:33:09;;;;;;;0.13;0.13;;;;;;;;;;5050662;28;20520;-85
2022/12/06 09:35:36;;;;;;;0.10;0.10;;;;;;;;;;5067988;28;20052;-85
2022/12/06 09:38:04;;;;;;;0.10;0.10;;;;;;;;;;5052484;28;20095;-85
2022/12/06 09:40:37;;;;;;;0.10;0.10;;;4.80;99.90;;;;;;5056662;28;20048;-85
2022/12/06 09:43:21;;;;;;;0.10;0.10;;;4.80;99.90;;;;;;5068868;28;20040;-86
2022/12/06 09:46:06;;;;;;;0.10;0.10;;;4.90;99.90;;;;;;5066042;28;20048;-85
2022/12/06 09:49:11;;;;;;;0.10;0.10;;;4.80;99.90;;;;;;5044579;28;20052;-85
2022/12/06 09:51:50;;;;;;;0.10;0.10;;;4.80;99.90;;;;;;5008280;28;20137;-86
2022/12/06 09:54:32;;;;;;;0.10;0.10;;;4.90;99.90;;;;;;5059130;28;20084;-85
2022/12/06 09:57:06;;;;;;;0.10;0.10;;;4.90;99.90;;;;;;5053184;28;20071;-85
2022/12/06 09:59:43;;;;;;;0.10;0.10;;;4.60;99.90;;;;;;5056150;28;20094;-86
2022/12/06 10:02:34;;;;;;;0.10;0.10;;;4.60;99.90;;;;;;5054511;28;20044;-85
2022/12/06 10:05:26;;;;;;;0.10;0.10;;;4.70;99.90;;;;;;5053972;28;20101;-85
2022/12/06 10:08:08;;;;;;;0.10;0.10;;;4.70;99.90;;;;;;5056788;28;20090;-85
2022/12/06 10:10:49;;;;;;;0.10;0.10;;;4.70;99.90;;;;;;5052745;28;20064;-85
2022/12/06 10:13:25;;;;;;;0.10;0.10;;;4.60;99.90;;;;;;5052518;28;20071;-85
2022/12/06 10:15:58;;;;;;;0.10;0.10;;;4.70;99.90;;;;;;5056820;28;20133;-85
2022/12/06 10:18:42;;;;;;;0.10;0.10;;;4.70;99.90;;;;;;5051473;28;20517;-86
2022/12/06 10:21:22;;;;;;;0.00;0.00;;;4.60;99.90;;;;;;5055487;28;20041;-85
2022/12/06 10:24:03;;;;;;;0.00;0.00;;;4.60;99.90;;;;;;5066947;28;20133;-85
2022/12/06 10:26:39;;;;;;;0.10;0.10;;;4.90;99.90;;;;;;5056120;28;20529;-86
2022/12/06 10:29:17;;;;;;;0.10;0.10;;;4.70;99.90;;;;;;5051870;28;20471;-85
2022/12/06 10:31:54;;;;;;;0.10;0.10;;;4.70;99.90;;;;;;5055119;28;20084;-86
2022/12/06 10:34:28;;;;;;;0.10;0.10;;;4.70;99.90;;;;;;5043632;28;20049;-85
2022/12/06 10:37:04;;;;;;;0.10;0.10;;;4.80;99.90;;;;;;5066597;28;20083;-85
2022/12/06 10:39:40;;;;;;;0.10;0.10;;;4.80;99.90;;;;;;5055433;28;20048;-86
2022/12/06 10:42:23;;;;;;;0.10;0.10;;;4.80;99.90;;;;;;5072762;28;20059;-86
2022/12/06 10:44:55;;;;;;;0.10;0.10;;;4.80;99.90;;;;;;5053534;28;20047;-85
2022/12/06 10:47:37;;;;;;;0.10;0.10;;;5.20;99.90;;;;;;5059369;28;20052;-86
2022/12/06 10:50:16;;;;;;;0.10;0.10;;;4.70;99.90;;;;;;5059352;28;20047;-86
2022/12/06 10:52:48;;;;;;;0.10;0.10;;;4.80;99.90;;;;;;5061625;28;20098;-85
2022/12/06 10:55:22;;;;;;;0.10;0.10;;;4.80;99.90;;;;;;5046816;28;20071;-85
2022/12/06 10:57:56;;;;;;;0.10;0.10;;;4.90;99.90;;;;;;5057664;28;20127;-86
2022/12/06 11:00:25;;;;;;;0.10;0.10;;;4.90;99.90;;;;;;5055645;28;20122;-85
2022/12/06 11:02:59;;;;;;;0.10;0.10;;;4.90;99.90;;;;;;5095722;23;20059;-95
2022/12/06 11:05:33;;;;;;;0.10;0.10;;;4.90;99.90;;;;;;5059286;28;20049;-96
2022/12/06 11:08:05;;;;;;;0.10;0.10;;;4.90;99.90;;;;;;5055506;28;20056;-95
2022/12/06 11:10:33;;;;;;;0.10;0.10;;;4.80;99.90;;;;;;5053190;28;20030;-92
2022/12/06 11:13:14;;;;;;;0.10;0.10;;;4.80;99.90;;;;;;5069883;28;20032;-96
2022/12/06 11:15:47;;;;;;;;;;;5.10;99.90;;;;;;5056052;28;20041;-95
2022/12/06 11:18:17;;;;;;;0.08;0.08;;;5.00;99.90;;;;;;5069160;28;19911;-96
2022/12/06 11:20:50;;;;;;;0.10;0.10;;;5.00;99.90;;;;;;5063279;28;20021;-95
2022/12/06 11:23:24;;;;;;;0.10;0.10;;;5.10;99.90;;;;;;5059336;28;20079;-96
2022/12/06 11:26:08;;;;;;;0.10;0.10;;;5.00;99.90;;;;;;5068032;28;20086;-95
2022/12/06 11:28:39;;;;;;;0.10;0.10;;;6.60;99.90;;;;;;5057856;28;20071;-91
2022/12/06 11:31:18;;;;;;;0.10;0.10;;;5.00;99.90;;;;;;5052308;28;20032;-94
2022/12/06 11:33:46;;;;;;;0.10;0.10;;;5.40;99.90;;;;;;5050325;28;20059;-96
2022/12/06 11:36:13;;;;;;;0.10;0.10;;;5.10;99.90;;;;;;5060111;28;20048;-96
2022/12/06 11:38:43;;;;;;;0.10;0.10;;;5.00;99.90;;;;;;5057819;28;20053;-93
2022/12/06 11:41:13;;;;;;;0.10;0.10;;;5.00;99.90;;;;;;5042077;28;20075;-92
2022/12/06 11:43:40;;;;;;;0.10;0.10;;;5.00;99.90;;;;;;5054311;28;20036;-96
2022/12/06 11:46:12;;;;;;;0.10;0.10;;;5.00;99.90;;;;;;5055530;28;20033;-96
2022/12/06 11:48:40;;;;;;;0.10;0.10;;;5.00;99.90;;;;;;5053271;28;20051;-96
2022/12/06 11:51:14;;;;;;;0.10;0.10;;;5.00;99.90;;;;;;5054654;28;20053;-95
2022/12/06 11:53:52;;;;;;;0.10;0.10;;;5.00;99.90;;;;;;5053282;28;20045;-94
2022/12/06 11:56:23;;;;;;;0.10;0.10;;;5.10;99.90;;;;;;5052766;28;20036;-94
2022/12/06 11:58:59;;;;;;;0.10;0.10;;;5.00;99.90;;;;;;5053345;28;20046;-94
2022/12/06 12:01:39;;;;;;;0.10;0.10;;;5.10;99.90;;;;;;5053197;28;20029;-94
2022/12/06 12:04:21;;;;;;;;;;;5.10;99.90;;;;;;5064093;28;20029;-87
2022/12/06 12:06:51;;;;;;;0.10;0.10;;;5.00;99.90;;;;;;5044701;28;19913;-92
2022/12/06 12:09:19;;;;;;;0.10;0.10;;;5.10;99.90;;;;;;5050138;28;20038;-94
2022/12/06 12:11:55;;;;;;;0.10;0.10;;;5.10;99.90;;;;;;5052559;28;20056;-95
2022/12/06 12:14:26;;;;;;;0.10;0.10;;;5.00;99.90;;;;;;5067297;28;20055;-96
2022/12/06 12:16:58;;;;;;;0.10;0.10;;;6.20;99.90;;;;;;5054511;28;20096;-90
2022/12/06 12:19:37;;;;;;;0.10;0.10;;;5.10;99.90;;;;;;5047266;28;20036;-95
2022/12/06 12:22:19;;;;;;;0.10;0.10;;;5.10;99.90;;;;;;5051992;28;20057;-95
2022/12/06 12:24:48;;;;;;;0.10;0.10;;;5.10;99.90;;;;;;5062175;28;20046;-96
2022/12/06 12:27:46;;;;;;;0.00;0.00;;;5.10;99.90;;;;;;5045426;28;20021;-92
2022/12/06 12:30:32;;;;;;;0.10;0.10;;;5.20;99.90;;;;;;5057058;28;20060;-95
2022/12/06 12:33:25;;;;;;;0.10;0.10;;;5.20;99.90;;;;;;5053346;28;20065;-95
2022/12/06 12:35:55;;;;;;;0.10;0.10;;;5.20;99.90;;;;;;5039713;28;20064;-91
2022/12/06 12:38:26;;;;;;;0.20;0.20;;;5.30;99.90;;;;;;5046236;28;20029;-96
2022/12/06 12:40:57;;;;;;;0.10;0.10;;;5.50;99.90;;;;;;5049869;28;20059;-91
2022/12/06 12:43:27;;;;;;;0.10;0.10;;;6.30;99.90;;;;;;5050319;28;20060;-95
2022/12/06 12:46:05;;;;;;;0.10;0.10;;;5.60;99.90;;;;;;5054053;28;20045;-96
2022/12/06 12:48:35;;;;;;;0.10;0.10;;;5.70;99.90;;;;;;5068955;28;20029;-93
2022/12/06 12:51:04;;;;;;;0.10;0.10;;;5.70;99.90;;;;;;5058134;28;20037;-94
2022/12/06 12:53:36;;;;;;;0.10;0.10;;;5.70;99.90;;;;;;5055471;28;20326;-96
2022/12/06 12:56:07;;;;;;;0.13;0.13;;;5.70;99.90;;;;;;5050843;28;20036;-91
2022/12/06 12:58:34;;;;;;;0.10;0.10;;;;;;;;;;5055111;28;20041;-91
2022/12/06 13:01:06;;;;;;;0.10;0.10;;;5.80;99.90;;;;;;5049340;28;20061;-90
2022/12/06 13:03:34;;;;;;;0.10;0.10;;;5.80;99.90;;;;;;5052912;28;20049;-89
2022/12/06 13:06:27;;;;;;;0.00;0.00;;;5.80;99.90;;;;;;5051310;28;20039;-89
2022/12/06 13:09:16;;;;;;;0.10;0.10;;;5.60;99.90;;;;;;5071127;23;20065;-92
2022/12/06 13:12:03;;;;;;;0.10;0.10;;;5.70;99.90;;;;;;5061810;28;20020;-91
2022/12/06 13:15:00;;;;;;;0.10;0.10;;;5.70;99.90;;;;;;5068115;28;20040;-94
2022/12/06 13:17:49;;;;;;;0.10;0.10;;;5.80;99.90;;;;;;5083669;28;20051;-95
2022/12/06 13:20:34;;;;;;;0.10;0.10;;;5.80;99.90;;;;;;5087315;28;20032;-91
2022/12/06 13:23:06;;;;;;;0.20;0.20;;;5.80;99.90;;;;;;5066372;28;20278;-93
2022/12/06 13:25:33;;;;;;;0.10;0.10;;;5.80;99.90;;;;;;5089185;28;20029;-92
2022/12/06 13:28:03;;;;;;;0.10;0.10;;;5.80;99.90;;;;;;5067913;28;20033;-94
2022/12/06 13:30:34;;;;;;;0.10;0.10;;;5.80;99.90;;;;;;5073355;28;20053;-92
2022/12/06 13:33:05;;;;;;;0.10;0.10;;;5.80;99.90;;;;;;5075356;28;20051;-92
2022/12/06 13:35:38;;;;;;;0.10;0.10;;;5.80;99.90;;;;;;5076631;28;20047;-93
2022/12/06 13:38:23;;;;;;;0.10;0.10;;;5.80;99.90;;;;;;5073999;28;20032;-93
2022/12/06 13:40:53;;;;;;;0.10;0.10;;;;;;;;;;5077853;28;20048;-90
2022/12/06 13:43:53;;;;;;;0.10;0.10;;;5.60;99.90;;;;;;5073859;28;20036;-93
2022/12/06 13:46:38;;;;;;;0.10;0.10;;;5.60;99.90;;;;;;5086621;28;20035;-96
2022/12/06 13:49:24;;;;;;;0.10;0.10;;;5.50;99.90;;;;;;5076312;28;20029;-94
2022/12/06 13:51:52;;;;;;;0.10;0.10;;;5.50;99.90;;;;;;5077572;28;20056;-92
2022/12/06 13:54:30;;;;;;;0.10;0.10;;;5.40;99.90;;;;;;5075435;28;20040;-93
2022/12/06 13:57:00;;;;;;;0.10;0.10;;;5.10;99.90;;;;;;5080399;28;20032;-96
2022/12/06 13:59:37;;;;;;;0.10;0.10;;;5.50;99.90;;;;;;5076980;28;20052;-93
2022/12/06 14:02:37;;;;;;;0.10;0.10;;;5.50;99.90;;;;;;5090585;28;20032;-97
2022/12/06 14:05:51;;;;;;;0.10;0.10;;;5.50;99.90;;;;;;5085196;28;20025;-93
2022/12/06 14:08:18;;;;;;;0.10;0.10;;;5.30;99.90;;;;;;5087916;28;20048;-95
2022/12/06 14:10:46;;;;;;;0.10;0.10;;;;;;;;;;5071757;28;20040;-95
2022/12/06 14:13:15;;;;;;;0.03;0.03;;;5.20;99.90;;;;;;5079373;28;20251;-96
2022/12/06 14:16:27;;;;;;;0.13;0.13;;;5.30;99.90;;;;;;5076280;28;20035;-96
2022/12/06 14:19:40;;;;;;;0.10;0.10;;;5.20;99.90;;;;;;5018546;28;20046;-96